sensor_id;sensor_type;location;lat;lon;timestamp;temperature;humidity
15879;DHT22;61999;51.514;14.614;2023-06-01T00:01:30;9.50;44.20
15879;DHT22;61999;51.514;14.614;2023-06-01T00:04:01;9.40;44.20
15879;DHT22;61999;51.514;14.614;2023-06-01T00:06:29;9.40;44.30
15879;DHT22;61999;51.514;14.614;2023-06-01T00:08:57;9.30;44.30
15879;DHT22;61999;51.514;14.614;2023-06-01T00:11:25;9.30;44.40
15879;DHT22;61999;51.514;14.614;2023-06-01T00:13:54;9.20;45.20
15879;DHT22;61999;51.514;14.614;2023-06-01T00:16:22;9.20;44.60
15879;DHT22;61999;51.514;14.614;2023-06-01T00:18:50;9.10;44.70
15879;DHT22;61999;51.514;14.614;2023-06-01T00:21:20;9.10;44.70
15879;DHT22;61999;51.514;14.614;2023-06-01T00:23:48;9.00;44.80
15879;DHT22;61999;51.514;14.614;2023-06-01T00:26:17;9.00;44.80
15879;DHT22;61999;51.514;14.614;2023-06-01T00:28:45;9.00;44.90
15879;DHT22;61999;51.514;14.614;2023-06-01T00:31:13;8.90;44.90
15879;DHT22;61999;51.514;14.614;2023-06-01T00:33:41;8.90;45.00
15879;DHT22;61999;51.514;14.614;2023-06-01T00:36:09;8.80;45.00
15879;DHT22;61999;51.514;14.614;2023-06-01T00:38:38;8.80;45.10
15879;DHT22;61999;51.514;14.614;2023-06-01T00:41:06;8.70;45.10
15879;DHT22;61999;51.514;14.614;2023-06-01T00:43:34;8.70;45.30
15879;DHT22;61999;51.514;14.614;2023-06-01T00:46:02;8.70;45.60
15879;DHT22;61999;51.514;14.614;2023-06-01T00:48:30;8.70;45.60
15879;DHT22;61999;51.514;14.614;2023-06-01T00:50:58;8.70;45.60
15879;DHT22;61999;51.514;14.614;2023-06-01T00:53:27;8.60;45.70
15879;DHT22;61999;51.514;14.614;2023-06-01T00:55:56;8.60;45.60
15879;DHT22;61999;51.514;14.614;2023-06-01T00:58:24;8.50;45.50
15879;DHT22;61999;51.514;14.614;2023-06-01T01:00:53;8.50;45.50
15879;DHT22;61999;51.514;14.614;2023-06-01T01:03:21;8.40;45.70
15879;DHT22;61999;51.514;14.614;2023-06-01T01:05:55;8.40;45.70
15879;DHT22;61999;51.514;14.614;2023-06-01T01:08:44;8.30;45.90
15879;DHT22;61999;51.514;14.614;2023-06-01T01:11:25;8.30;46.00
15879;DHT22;61999;51.514;14.614;2023-06-01T01:14:01;8.30;46.10
15879;DHT22;61999;51.514;14.614;2023-06-01T01:16:41;8.30;46.30
15879;DHT22;61999;51.514;14.614;2023-06-01T01:19:30;8.20;46.40
15879;DHT22;61999;51.514;14.614;2023-06-01T01:22:20;8.20;46.40
15879;DHT22;61999;51.514;14.614;2023-06-01T01:25:05;8.20;47.10
15879;DHT22;61999;51.514;14.614;2023-06-01T01:28:10;8.20;46.70
15879;DHT22;61999;51.514;14.614;2023-06-01T01:30:54;8.10;46.70
15879;DHT22;61999;51.514;14.614;2023-06-01T01:33:24;8.10;46.50
15879;DHT22;61999;51.514;14.614;2023-06-01T01:35:54;8.10;46.50
15879;DHT22;61999;51.514;14.614;2023-06-01T01:38:23;8.00;46.50
15879;DHT22;61999;51.514;14.614;2023-06-01T01:40:51;7.90;46.50
15879;DHT22;61999;51.514;14.614;2023-06-01T01:43:20;7.90;46.50
15879;DHT22;61999;51.514;14.614;2023-06-01T01:45:57;7.90;46.70
15879;DHT22;61999;51.514;14.614;2023-06-01T01:48:35;7.80;46.70
15879;DHT22;61999;51.514;14.614;2023-06-01T01:51:10;7.80;46.80
15879;DHT22;61999;51.514;14.614;2023-06-01T01:53:44;7.80;46.80
15879;DHT22;61999;51.514;14.614;2023-06-01T01:56:13;7.80;46.80
15879;DHT22;61999;51.514;14.614;2023-06-01T01:58:45;7.70;46.80
15879;DHT22;61999;51.514;14.614;2023-06-01T02:01:15;7.70;46.80
15879;DHT22;61999;51.514;14.614;2023-06-01T02:03:44;7.70;46.90
15879;DHT22;61999;51.514;14.614;2023-06-01T02:06:12;7.60;47.00
15879;DHT22;61999;51.514;14.614;2023-06-01T02:08:40;7.60;47.10
15879;DHT22;61999;51.514;14.614;2023-06-01T02:11:08;7.60;47.20
15879;DHT22;61999;51.514;14.614;2023-06-01T02:13:35;7.60;47.30
15879;DHT22;61999;51.514;14.614;2023-06-01T02:16:05;7.60;47.60
15879;DHT22;61999;51.514;14.614;2023-06-01T02:18:33;7.60;47.80
15879;DHT22;61999;51.514;14.614;2023-06-01T02:21:05;7.50;47.80
15879;DHT22;61999;51.514;14.614;2023-06-01T02:23:35;7.50;47.90
15879;DHT22;61999;51.514;14.614;2023-06-01T02:26:06;7.50;48.00
15879;DHT22;61999;51.514;14.614;2023-06-01T02:28:36;7.50;48.10
15879;DHT22;61999;51.514;14.614;2023-06-01T02:31:06;7.50;48.30
15879;DHT22;61999;51.514;14.614;2023-06-01T02:33:34;7.50;48.30
15879;DHT22;61999;51.514;14.614;2023-06-01T02:36:03;7.50;48.30
15879;DHT22;61999;51.514;14.614;2023-06-01T02:38:31;7.50;48.50
15879;DHT22;61999;51.514;14.614;2023-06-01T02:40:59;7.50;48.70
15879;DHT22;61999;51.514;14.614;2023-06-01T02:43:27;7.40;48.90
15879;DHT22;61999;51.514;14.614;2023-06-01T02:45:55;7.50;49.10
15879;DHT22;61999;51.514;14.614;2023-06-01T02:48:25;7.50;49.20
15879;DHT22;61999;51.514;14.614;2023-06-01T02:50:53;7.50;49.20
15879;DHT22;61999;51.514;14.614;2023-06-01T02:53:21;7.40;49.20
15879;DHT22;61999;51.514;14.614;2023-06-01T02:55:49;7.40;49.10
15879;DHT22;61999;51.514;14.614;2023-06-01T02:58:17;7.40;49.10
15879;DHT22;61999;51.514;14.614;2023-06-01T03:00:45;7.40;49.10
15879;DHT22;61999;51.514;14.614;2023-06-01T03:03:14;7.40;49.20
15879;DHT22;61999;51.514;14.614;2023-06-01T03:05:43;7.30;49.60
15879;DHT22;61999;51.514;14.614;2023-06-01T03:08:14;7.30;49.70
15879;DHT22;61999;51.514;14.614;2023-06-01T03:10:43;7.30;49.90
15879;DHT22;61999;51.514;14.614;2023-06-01T03:13:11;7.30;49.70
15879;DHT22;61999;51.514;14.614;2023-06-01T03:15:39;7.30;49.90
15879;DHT22;61999;51.514;14.614;2023-06-01T03:18:07;7.30;49.90
15879;DHT22;61999;51.514;14.614;2023-06-01T03:20:36;7.20;50.00
15879;DHT22;61999;51.514;14.614;2023-06-01T03:23:05;7.20;50.10
15879;DHT22;61999;51.514;14.614;2023-06-01T03:25:33;7.20;50.10
15879;DHT22;61999;51.514;14.614;2023-06-01T03:28:01;7.20;50.30
15879;DHT22;61999;51.514;14.614;2023-06-01T03:30:29;7.20;50.40
15879;DHT22;61999;51.514;14.614;2023-06-01T03:32:57;7.20;50.50
15879;DHT22;61999;51.514;14.614;2023-06-01T03:35:26;7.20;50.70
15879;DHT22;61999;51.514;14.614;2023-06-01T03:37:53;7.20;50.70
15879;DHT22;61999;51.514;14.614;2023-06-01T03:40:23;7.30;50.90
15879;DHT22;61999;51.514;14.614;2023-06-01T03:42:51;7.30;51.00
15879;DHT22;61999;51.514;14.614;2023-06-01T03:45:19;7.30;51.20
15879;DHT22;61999;51.514;14.614;2023-06-01T03:47:47;7.30;51.30
15879;DHT22;61999;51.514;14.614;2023-06-01T03:50:15;7.30;51.50
15879;DHT22;61999;51.514;14.614;2023-06-01T03:52:43;7.40;51.60
15879;DHT22;61999;51.514;14.614;2023-06-01T03:55:11;7.40;51.80
15879;DHT22;61999;51.514;14.614;2023-06-01T03:57:41;7.40;51.90
15879;DHT22;61999;51.514;14.614;2023-06-01T04:00:09;7.50;52.10
15879;DHT22;61999;51.514;14.614;2023-06-01T04:02:49;7.60;52.20
15879;DHT22;61999;51.514;14.614;2023-06-01T04:05:19;7.60;52.30
15879;DHT22;61999;51.514;14.614;2023-06-01T04:07:50;7.70;52.50
15879;DHT22;61999;51.514;14.614;2023-06-01T04:10:19;7.70;52.40
15879;DHT22;61999;51.514;14.614;2023-06-01T04:12:50;7.80;52.40
15879;DHT22;61999;51.514;14.614;2023-06-01T04:15:20;7.90;52.60
15879;DHT22;61999;51.514;14.614;2023-06-01T04:17:48;7.90;52.40
15879;DHT22;61999;51.514;14.614;2023-06-01T04:20:16;8.00;52.30
15879;DHT22;61999;51.514;14.614;2023-06-01T04:22:45;8.10;52.30
15879;DHT22;61999;51.514;14.614;2023-06-01T04:25:14;8.20;52.30
15879;DHT22;61999;51.514;14.614;2023-06-01T04:27:45;8.30;52.30
15879;DHT22;61999;51.514;14.614;2023-06-01T04:30:16;8.40;52.20
15879;DHT22;61999;51.514;14.614;2023-06-01T04:32:46;8.50;52.10
15879;DHT22;61999;51.514;14.614;2023-06-01T04:35:15;8.60;52.10
15879;DHT22;61999;51.514;14.614;2023-06-01T04:37:43;8.70;52.20
15879;DHT22;61999;51.514;14.614;2023-06-01T04:40:11;8.80;52.00
15879;DHT22;61999;51.514;14.614;2023-06-01T04:42:42;8.90;51.90
15879;DHT22;61999;51.514;14.614;2023-06-01T04:45:17;9.00;51.80
15879;DHT22;61999;51.514;14.614;2023-06-01T04:47:45;9.00;51.60
15879;DHT22;61999;51.514;14.614;2023-06-01T04:50:13;9.00;51.70
15879;DHT22;61999;51.514;14.614;2023-06-01T04:52:43;9.00;51.70
15879;DHT22;61999;51.514;14.614;2023-06-01T04:55:12;9.00;51.60
15879;DHT22;61999;51.514;14.614;2023-06-01T04:57:40;9.10;51.90
15879;DHT22;61999;51.514;14.614;2023-06-01T05:00:11;9.10;51.90
15879;DHT22;61999;51.514;14.614;2023-06-01T05:02:43;9.20;51.80
15879;DHT22;61999;51.514;14.614;2023-06-01T05:05:12;9.20;52.00
15879;DHT22;61999;51.514;14.614;2023-06-01T05:07:41;9.30;52.10
15879;DHT22;61999;51.514;14.614;2023-06-01T05:10:11;9.30;51.90
15879;DHT22;61999;51.514;14.614;2023-06-01T05:12:40;9.30;51.80
15879;DHT22;61999;51.514;14.614;2023-06-01T05:15:09;9.40;51.90
15879;DHT22;61999;51.514;14.614;2023-06-01T05:17:37;9.50;51.90
15879;DHT22;61999;51.514;14.614;2023-06-01T05:20:08;9.60;52.20
15879;DHT22;61999;51.514;14.614;2023-06-01T05:22:38;10.00;52.40
15879;DHT22;61999;51.514;14.614;2023-06-01T05:25:06;10.20;51.40
15879;DHT22;61999;51.514;14.614;2023-06-01T05:27:35;10.20;51.50
15879;DHT22;61999;51.514;14.614;2023-06-01T05:30:04;10.30;51.80
15879;DHT22;61999;51.514;14.614;2023-06-01T05:32:33;10.40;51.70
15879;DHT22;61999;51.514;14.614;2023-06-01T05:35:01;10.30;51.30
15879;DHT22;61999;51.514;14.614;2023-06-01T05:37:31;10.20;52.30
15879;DHT22;61999;51.514;14.614;2023-06-01T05:39:59;10.40;51.70
15879;DHT22;61999;51.514;14.614;2023-06-01T05:42:27;10.50;51.50
15879;DHT22;61999;51.514;14.614;2023-06-01T05:44:55;10.50;51.70
15879;DHT22;61999;51.514;14.614;2023-06-01T05:47:23;10.40;51.70
15879;DHT22;61999;51.514;14.614;2023-06-01T05:49:51;10.60;52.30
15879;DHT22;61999;51.514;14.614;2023-06-01T05:52:19;10.70;51.80
15879;DHT22;61999;51.514;14.614;2023-06-01T05:54:48;10.80;51.40
15879;DHT22;61999;51.514;14.614;2023-06-01T05:57:17;10.60;52.50
15879;DHT22;61999;51.514;14.614;2023-06-01T05:59:45;11.00;51.50
15879;DHT22;61999;51.514;14.614;2023-06-01T06:02:13;10.80;51.60
15879;DHT22;61999;51.514;14.614;2023-06-01T06:04:42;10.60;52.50
15879;DHT22;61999;51.514;14.614;2023-06-01T06:07:11;10.50;52.30
15879;DHT22;61999;51.514;14.614;2023-06-01T06:09:39;10.50;52.60
15879;DHT22;61999;51.514;14.614;2023-06-01T06:12:09;10.80;52.50
15879;DHT22;61999;51.514;14.614;2023-06-01T06:14:37;10.80;52.50
15879;DHT22;61999;51.514;14.614;2023-06-01T06:17:05;11.10;51.70
15879;DHT22;61999;51.514;14.614;2023-06-01T06:19:33;11.30;51.60
15879;DHT22;61999;51.514;14.614;2023-06-01T06:22:02;11.40;51.70
15879;DHT22;61999;51.514;14.614;2023-06-01T06:24:30;11.50;51.40
15879;DHT22;61999;51.514;14.614;2023-06-01T06:26:58;11.30;51.40
15879;DHT22;61999;51.514;14.614;2023-06-01T06:29:27;11.30;51.80
15879;DHT22;61999;51.514;14.614;2023-06-01T06:31:55;11.40;51.80
15879;DHT22;61999;51.514;14.614;2023-06-01T06:34:23;11.20;52.00
15879;DHT22;61999;51.514;14.614;2023-06-01T06:36:51;11.40;52.10
15879;DHT22;61999;51.514;14.614;2023-06-01T06:39:20;11.30;52.00
15879;DHT22;61999;51.514;14.614;2023-06-01T06:41:48;11.30;52.00
15879;DHT22;61999;51.514;14.614;2023-06-01T06:44:16;11.30;52.60
15879;DHT22;61999;51.514;14.614;2023-06-01T06:46:45;11.70;51.80
15879;DHT22;61999;51.514;14.614;2023-06-01T06:49:13;11.60;51.60
15879;DHT22;61999;51.514;14.614;2023-06-01T06:51:42;11.90;51.80
15879;DHT22;61999;51.514;14.614;2023-06-01T06:54:10;12.10;51.20
15879;DHT22;61999;51.514;14.614;2023-06-01T06:56:38;12.00;51.30
15879;DHT22;61999;51.514;14.614;2023-06-01T06:59:06;12.20;50.80
15879;DHT22;61999;51.514;14.614;2023-06-01T07:01:34;12.30;50.70
15879;DHT22;61999;51.514;14.614;2023-06-01T07:04:07;12.20;51.20
15879;DHT22;61999;51.514;14.614;2023-06-01T07:06:35;12.40;50.90
15879;DHT22;61999;51.514;14.614;2023-06-01T07:09:03;12.50;50.50
15879;DHT22;61999;51.514;14.614;2023-06-01T07:11:32;12.50;50.30
15879;DHT22;61999;51.514;14.614;2023-06-01T07:14:01;12.40;50.70
15879;DHT22;61999;51.514;14.614;2023-06-01T07:16:29;12.20;51.20
15879;DHT22;61999;51.514;14.614;2023-06-01T07:18:57;12.40;51.20
15879;DHT22;61999;51.514;14.614;2023-06-01T07:21:26;12.70;50.60
15879;DHT22;61999;51.514;14.614;2023-06-01T07:23:54;12.70;50.40
15879;DHT22;61999;51.514;14.614;2023-06-01T07:26:22;12.60;51.40
15879;DHT22;61999;51.514;14.614;2023-06-01T07:28:51;12.50;51.30
15879;DHT22;61999;51.514;14.614;2023-06-01T07:31:21;12.50;51.60
15879;DHT22;61999;51.514;14.614;2023-06-01T07:33:49;12.50;51.80
15879;DHT22;61999;51.514;14.614;2023-06-01T07:36:18;12.80;50.90
15879;DHT22;61999;51.514;14.614;2023-06-01T07:38:49;13.20;50.00
15879;DHT22;61999;51.514;14.614;2023-06-01T07:41:18;13.20;50.00
15879;DHT22;61999;51.514;14.614;2023-06-01T07:43:46;13.40;49.70
15879;DHT22;61999;51.514;14.614;2023-06-01T07:46:14;13.60;49.50
15879;DHT22;61999;51.514;14.614;2023-06-01T07:48:42;13.60;50.00
15879;DHT22;61999;51.514;14.614;2023-06-01T07:51:10;13.60;47.10
15879;DHT22;61999;51.514;14.614;2023-06-01T07:53:38;13.50;48.20
15879;DHT22;61999;51.514;14.614;2023-06-01T07:56:07;13.50;48.90
15879;DHT22;61999;51.514;14.614;2023-06-01T07:58:35;13.80;47.00
15879;DHT22;61999;51.514;14.614;2023-06-01T08:01:04;13.70;46.70
15879;DHT22;61999;51.514;14.614;2023-06-01T08:03:33;13.80;46.00
15879;DHT22;61999;51.514;14.614;2023-06-01T08:06:01;13.90;46.90
15879;DHT22;61999;51.514;14.614;2023-06-01T08:08:31;14.20;45.50
15879;DHT22;61999;51.514;14.614;2023-06-01T08:10:59;14.20;45.80
15879;DHT22;61999;51.514;14.614;2023-06-01T08:13:28;14.00;45.90
15879;DHT22;61999;51.514;14.614;2023-06-01T08:15:56;14.20;45.40
15879;DHT22;61999;51.514;14.614;2023-06-01T08:18:26;14.20;45.30
15879;DHT22;61999;51.514;14.614;2023-06-01T08:20:54;14.50;44.40
15879;DHT22;61999;51.514;14.614;2023-06-01T08:23:22;14.70;43.60
15879;DHT22;61999;51.514;14.614;2023-06-01T08:25:50;14.80;42.60
15879;DHT22;61999;51.514;14.614;2023-06-01T08:28:18;14.70;42.10
15879;DHT22;61999;51.514;14.614;2023-06-01T08:30:47;14.60;42.10
15879;DHT22;61999;51.514;14.614;2023-06-01T08:33:15;14.80;42.20
15879;DHT22;61999;51.514;14.614;2023-06-01T08:35:43;14.70;43.70
15879;DHT22;61999;51.514;14.614;2023-06-01T08:38:11;15.00;41.10
15879;DHT22;61999;51.514;14.614;2023-06-01T08:40:39;15.30;40.00
15879;DHT22;61999;51.514;14.614;2023-06-01T08:43:12;15.40;39.90
15879;DHT22;61999;51.514;14.614;2023-06-01T08:45:47;15.50;37.90
15879;DHT22;61999;51.514;14.614;2023-06-01T08:48:18;15.50;39.80
15879;DHT22;61999;51.514;14.614;2023-06-01T08:50:49;15.60;40.20
15879;DHT22;61999;51.514;14.614;2023-06-01T08:53:20;16.00;36.70
15879;DHT22;61999;51.514;14.614;2023-06-01T08:55:51;15.90;34.90
15879;DHT22;61999;51.514;14.614;2023-06-01T08:58:19;15.70;37.40
15879;DHT22;61999;51.514;14.614;2023-06-01T09:00:49;16.00;35.00
15879;DHT22;61999;51.514;14.614;2023-06-01T09:03:20;16.20;35.60
15879;DHT22;61999;51.514;14.614;2023-06-01T09:05:48;16.40;34.30
15879;DHT22;61999;51.514;14.614;2023-06-01T09:08:16;16.70;33.10
15879;DHT22;61999;51.514;14.614;2023-06-01T09:10:44;17.00;32.60
15879;DHT22;61999;51.514;14.614;2023-06-01T09:13:12;17.30;32.90
15879;DHT22;61999;51.514;14.614;2023-06-01T09:16:00;17.20;33.50
15879;DHT22;61999;51.514;14.614;2023-06-01T09:18:29;16.80;32.40
15879;DHT22;61999;51.514;14.614;2023-06-01T09:21:10;16.60;33.80
15879;DHT22;61999;51.514;14.614;2023-06-01T09:23:39;16.70;34.60
15879;DHT22;61999;51.514;14.614;2023-06-01T09:26:10;16.90;34.30
15879;DHT22;61999;51.514;14.614;2023-06-01T09:28:52;17.30;34.20
15879;DHT22;61999;51.514;14.614;2023-06-01T09:31:39;17.50;34.20
15879;DHT22;61999;51.514;14.614;2023-06-01T09:34:10;17.70;33.80
15879;DHT22;61999;51.514;14.614;2023-06-01T09:36:42;17.90;31.70
15879;DHT22;61999;51.514;14.614;2023-06-01T09:39:12;17.90;32.50
15879;DHT22;61999;51.514;14.614;2023-06-01T09:41:46;17.90;31.60
15879;DHT22;61999;51.514;14.614;2023-06-01T09:44:22;17.80;32.70
15879;DHT22;61999;51.514;14.614;2023-06-01T09:46:57;17.80;33.80
15879;DHT22;61999;51.514;14.614;2023-06-01T09:49:27;18.00;33.50
15879;DHT22;61999;51.514;14.614;2023-06-01T09:52:09;18.30;33.70
15879;DHT22;61999;51.514;14.614;2023-06-01T09:54:42;18.90;31.60
15879;DHT22;61999;51.514;14.614;2023-06-01T09:57:12;19.30;29.50
15879;DHT22;61999;51.514;14.614;2023-06-01T09:59:47;19.40;30.30
15879;DHT22;61999;51.514;14.614;2023-06-01T10:02:19;19.50;30.40
15879;DHT22;61999;51.514;14.614;2023-06-01T10:04:49;19.50;29.70
15879;DHT22;61999;51.514;14.614;2023-06-01T10:07:20;19.30;30.00
15879;DHT22;61999;51.514;14.614;2023-06-01T10:09:51;19.30;30.00
15879;DHT22;61999;51.514;14.614;2023-06-01T10:12:22;18.90;31.60
15879;DHT22;61999;51.514;14.614;2023-06-01T10:14:50;19.00;30.60
15879;DHT22;61999;51.514;14.614;2023-06-01T10:17:21;19.20;30.70
15879;DHT22;61999;51.514;14.614;2023-06-01T10:19:49;19.50;30.90
15879;DHT22;61999;51.514;14.614;2023-06-01T10:22:18;19.80;31.20
15879;DHT22;61999;51.514;14.614;2023-06-01T10:24:46;20.30;30.10
15879;DHT22;61999;51.514;14.614;2023-06-01T10:27:19;20.70;29.50
15879;DHT22;61999;51.514;14.614;2023-06-01T10:29:53;21.10;28.00
15879;DHT22;61999;51.514;14.614;2023-06-01T10:32:47;21.40;29.10
15879;DHT22;61999;51.514;14.614;2023-06-01T10:38:24;22.20;28.20
15879;DHT22;61999;51.514;14.614;2023-06-01T10:40:52;22.40;26.50
15879;DHT22;61999;51.514;14.614;2023-06-01T10:43:39;22.30;27.00
15879;DHT22;61999;51.514;14.614;2023-06-01T10:46:33;22.40;26.10
15879;DHT22;61999;51.514;14.614;2023-06-01T10:49:04;22.40;27.00
15879;DHT22;61999;51.514;14.614;2023-06-01T10:51:32;22.50;27.40
15879;DHT22;61999;51.514;14.614;2023-06-01T10:54:24;22.80;25.30
15879;DHT22;61999;51.514;14.614;2023-06-01T10:57:22;22.80;25.70
15879;DHT22;61999;51.514;14.614;2023-06-01T11:00:14;22.10;24.70
15879;DHT22;61999;51.514;14.614;2023-06-01T11:02:58;20.80;27.50
15879;DHT22;61999;51.514;14.614;2023-06-01T11:05:42;21.00;28.30
15879;DHT22;61999;51.514;14.614;2023-06-01T11:11:57;21.50;25.90
15879;DHT22;61999;51.514;14.614;2023-06-01T11:14:29;20.80;26.40
15879;DHT22;61999;51.514;14.614;2023-06-01T11:17:25;21.00;26.90
15879;DHT22;61999;51.514;14.614;2023-06-01T11:20:00;21.60;27.10
15879;DHT22;61999;51.514;14.614;2023-06-01T11:22:39;21.90;25.70
15879;DHT22;61999;51.514;14.614;2023-06-01T11:25:08;21.50;26.00
15879;DHT22;61999;51.514;14.614;2023-06-01T11:27:44;21.30;27.50
15879;DHT22;61999;51.514;14.614;2023-06-01T11:30:18;21.80;26.80
15879;DHT22;61999;51.514;14.614;2023-06-01T11:32:51;22.50;26.10
15879;DHT22;61999;51.514;14.614;2023-06-01T11:35:21;23.10;26.10
15879;DHT22;61999;51.514;14.614;2023-06-01T11:37:54;23.50;26.80
15879;DHT22;61999;51.514;14.614;2023-06-01T11:40:23;24.10;25.90
15879;DHT22;61999;51.514;14.614;2023-06-01T11:42:54;24.70;24.90
15879;DHT22;61999;51.514;14.614;2023-06-01T11:45:22;25.00;25.10
15879;DHT22;61999;51.514;14.614;2023-06-01T11:47:52;25.40;26.30
15879;DHT22;61999;51.514;14.614;2023-06-01T11:50:21;26.00;25.20
15879;DHT22;61999;51.514;14.614;2023-06-01T11:52:55;26.70;23.90
15879;DHT22;61999;51.514;14.614;2023-06-01T11:55:24;27.00;23.30
15879;DHT22;61999;51.514;14.614;2023-06-01T11:57:52;26.60;23.60
15879;DHT22;61999;51.514;14.614;2023-06-01T12:00:20;26.60;24.10
15879;DHT22;61999;51.514;14.614;2023-06-01T12:03:04;26.70;24.50
15879;DHT22;61999;51.514;14.614;2023-06-01T12:05:38;26.40;23.60
15879;DHT22;61999;51.514;14.614;2023-06-01T12:08:13;25.90;24.70
15879;DHT22;61999;51.514;14.614;2023-06-01T12:10:43;26.10;24.10
15879;DHT22;61999;51.514;14.614;2023-06-01T12:13:13;26.00;24.80
15879;DHT22;61999;51.514;14.614;2023-06-01T12:15:42;26.30;24.30
15879;DHT22;61999;51.514;14.614;2023-06-01T12:18:11;26.60;24.80
15879;DHT22;61999;51.514;14.614;2023-06-01T12:20:41;27.20;24.10
15879;DHT22;61999;51.514;14.614;2023-06-01T12:23:15;27.70;24.00
15879;DHT22;61999;51.514;14.614;2023-06-01T12:25:48;28.20;23.30
15879;DHT22;61999;51.514;14.614;2023-06-01T12:28:18;29.00;22.60
15879;DHT22;61999;51.514;14.614;2023-06-01T12:30:47;29.10;22.20
15879;DHT22;61999;51.514;14.614;2023-06-01T12:33:36;28.60;21.30
15879;DHT22;61999;51.514;14.614;2023-06-01T12:36:06;27.70;22.40
15879;DHT22;61999;51.514;14.614;2023-06-01T12:38:37;27.70;22.20
15879;DHT22;61999;51.514;14.614;2023-06-01T12:41:17;27.40;21.70
15879;DHT22;61999;51.514;14.614;2023-06-01T12:43:48;26.00;22.80
15879;DHT22;61999;51.514;14.614;2023-06-01T12:46:20;25.30;23.70
15879;DHT22;61999;51.514;14.614;2023-06-01T12:48:50;25.50;24.70
15879;DHT22;61999;51.514;14.614;2023-06-01T12:51:21;26.10;23.90
15879;DHT22;61999;51.514;14.614;2023-06-01T12:53:51;26.40;23.70
15879;DHT22;61999;51.514;14.614;2023-06-01T12:56:19;26.20;23.50
15879;DHT22;61999;51.514;14.614;2023-06-01T12:58:47;26.20;24.50
15879;DHT22;61999;51.514;14.614;2023-06-01T13:01:16;26.50;23.60
15879;DHT22;61999;51.514;14.614;2023-06-01T13:03:44;26.80;23.10
15879;DHT22;61999;51.514;14.614;2023-06-01T13:06:12;27.00;23.20
15879;DHT22;61999;51.514;14.614;2023-06-01T13:08:43;27.60;22.10
15879;DHT22;61999;51.514;14.614;2023-06-01T13:11:13;28.00;21.80
15879;DHT22;61999;51.514;14.614;2023-06-01T13:13:41;28.30;20.90
15879;DHT22;61999;51.514;14.614;2023-06-01T13:16:10;28.30;20.60
15879;DHT22;61999;51.514;14.614;2023-06-01T13:18:38;28.40;21.20
15879;DHT22;61999;51.514;14.614;2023-06-01T13:21:06;28.60;21.20
15879;DHT22;61999;51.514;14.614;2023-06-01T13:23:34;28.70;20.50
15879;DHT22;61999;51.514;14.614;2023-06-01T13:26:02;28.90;21.40
15879;DHT22;61999;51.514;14.614;2023-06-01T13:28:32;28.90;21.00
15879;DHT22;61999;51.514;14.614;2023-06-01T13:31:00;28.70;21.00
15879;DHT22;61999;51.514;14.614;2023-06-01T13:33:28;28.50;21.50
15879;DHT22;61999;51.514;14.614;2023-06-01T13:35:56;28.50;21.70
15879;DHT22;61999;51.514;14.614;2023-06-01T13:38:24;28.40;22.30
15879;DHT22;61999;51.514;14.614;2023-06-01T13:40:53;28.60;21.10
15879;DHT22;61999;51.514;14.614;2023-06-01T13:43:21;28.90;21.00
15879;DHT22;61999;51.514;14.614;2023-06-01T13:45:50;29.20;20.40
15879;DHT22;61999;51.514;14.614;2023-06-01T13:48:18;28.30;20.50
15879;DHT22;61999;51.514;14.614;2023-06-01T13:50:46;27.70;21.60
15879;DHT22;61999;51.514;14.614;2023-06-01T13:53:14;27.50;21.70
15879;DHT22;61999;51.514;14.614;2023-06-01T13:55:42;27.70;22.40
15879;DHT22;61999;51.514;14.614;2023-06-01T13:58:10;28.20;21.20
15879;DHT22;61999;51.514;14.614;2023-06-01T14:00:38;28.70;20.70
15879;DHT22;61999;51.514;14.614;2023-06-01T14:03:09;29.20;21.20
15879;DHT22;61999;51.514;14.614;2023-06-01T14:05:37;29.80;19.90
15879;DHT22;61999;51.514;14.614;2023-06-01T14:08:10;30.50;20.30
15879;DHT22;61999;51.514;14.614;2023-06-01T14:10:38;31.10;20.00
15879;DHT22;61999;51.514;14.614;2023-06-01T14:13:07;31.60;19.60
15879;DHT22;61999;51.514;14.614;2023-06-01T14:15:35;32.00;18.40
15879;DHT22;61999;51.514;14.614;2023-06-01T14:18:03;32.50;18.50
15879;DHT22;61999;51.514;14.614;2023-06-01T14:20:32;32.60;18.20
15879;DHT22;61999;51.514;14.614;2023-06-01T14:23:01;32.70;18.50
15879;DHT22;61999;51.514;14.614;2023-06-01T14:25:30;32.90;18.50
15879;DHT22;61999;51.514;14.614;2023-06-01T14:27:58;33.40;17.30
15879;DHT22;61999;51.514;14.614;2023-06-01T14:30:26;33.50;17.50
15879;DHT22;61999;51.514;14.614;2023-06-01T14:32:54;33.50;17.30
15879;DHT22;61999;51.514;14.614;2023-06-01T14:35:22;33.40;17.40
15879;DHT22;61999;51.514;14.614;2023-06-01T14:37:52;33.50;17.10
15879;DHT22;61999;51.514;14.614;2023-06-01T14:40:20;33.60;17.50
15879;DHT22;61999;51.514;14.614;2023-06-01T14:42:48;33.70;16.80
15879;DHT22;61999;51.514;14.614;2023-06-01T14:45:17;33.30;17.40
15879;DHT22;61999;51.514;14.614;2023-06-01T14:47:47;33.00;17.80
15879;DHT22;61999;51.514;14.614;2023-06-01T14:50:15;33.00;17.30
15879;DHT22;61999;51.514;14.614;2023-06-01T14:52:43;32.80;17.80
15879;DHT22;61999;51.514;14.614;2023-06-01T14:55:13;32.70;17.30
15879;DHT22;61999;51.514;14.614;2023-06-01T14:57:41;32.60;17.40
15879;DHT22;61999;51.514;14.614;2023-06-01T15:00:09;32.40;17.30
15879;DHT22;61999;51.514;14.614;2023-06-01T15:02:38;32.50;17.00
15879;DHT22;61999;51.514;14.614;2023-06-01T15:05:07;32.30;16.90
15879;DHT22;61999;51.514;14.614;2023-06-01T15:07:35;31.80;17.70
15879;DHT22;61999;51.514;14.614;2023-06-01T15:10:04;31.40;17.90
15879;DHT22;61999;51.514;14.614;2023-06-01T15:12:34;30.90;17.80
15879;DHT22;61999;51.514;14.614;2023-06-01T15:15:03;30.20;18.90
15879;DHT22;61999;51.514;14.614;2023-06-01T15:17:31;30.10;19.50
15879;DHT22;61999;51.514;14.614;2023-06-01T15:19:59;30.00;19.80
15879;DHT22;61999;51.514;14.614;2023-06-01T15:22:27;29.80;20.20
15879;DHT22;61999;51.514;14.614;2023-06-01T15:24:55;29.90;20.40
15879;DHT22;61999;51.514;14.614;2023-06-01T15:27:23;29.90;20.50
15879;DHT22;61999;51.514;14.614;2023-06-01T15:29:53;30.30;20.40
15879;DHT22;61999;51.514;14.614;2023-06-01T15:32:21;30.30;20.40
15879;DHT22;61999;51.514;14.614;2023-06-01T15:34:49;30.20;20.20
15879;DHT22;61999;51.514;14.614;2023-06-01T15:37:17;29.90;20.50
15879;DHT22;61999;51.514;14.614;2023-06-01T15:39:46;29.90;21.00
15879;DHT22;61999;51.514;14.614;2023-06-01T15:42:14;29.60;20.00
15879;DHT22;61999;51.514;14.614;2023-06-01T15:44:43;29.30;20.10
15879;DHT22;61999;51.514;14.614;2023-06-01T15:47:12;28.70;20.70